Tropical Cyclones
[Index]
Main Index Home Page Stock Weather Photos Extreme Storms Discussion Storm News and Storm Chasing Reports Tropical Cyclones / Hurricanes / Typhoons Weather Data and Links Wild Fires / Bushfires Weather Observation Techniques Weather Picture Catalogue Tornado Pictures and Reports Stock Video Footage and DVDs for sale
Season 2011-2012 Tropical Cyclone KOJI-JONI Track Map
Season 2011-2012 Summaries (Operational Data): [AU] [SIO] [SPAC] [SH]
<<- Previous TC | 2011-2012 Season | Next TC ->>

click for intensity scale information  Lat/long Grid: Show Hide

 Date Labels: Show Hide

Operational Tropical Cyclone Data : JTWC Advisories

Name: KOJI-JONI
Number: 1216

05 Mar 2012 06:00 UTC to 15 Mar 2012 12:00 UTC

    date/time    lat    long     hPa   cat  kts
2012-03-05 06   11.2   104.3    1010         15          
2012-03-05 12   12.0   102.8    1010         15          
2012-03-05 18   12.2   100.7    1010         15          
2012-03-06 00   12.3   100.3    1010         15          
2012-03-06 06   12.4   100.0    1010         15          
2012-03-06 12   12.7    99.3    1007         20          
2012-03-06 18   13.4    98.1    1003         25          
2012-03-07 00   14.1    97.1    1000         30          
2012-03-07 06   14.6    96.1     996    1    35          
2012-03-07 12   15.0    94.6     993    1    40          
2012-03-07 18   15.1    93.7     993    1    40          
2012-03-08 00   15.4    92.2     993    1    40          
2012-03-08 06   15.8    90.6     989    1    45          
2012-03-08 12   16.3    89.4     989    1    45          
2012-03-08 18   16.6    88.3     985    2    50          
2012-03-09 00   16.8    87.3     982    2    55          
2012-03-09 06   17.1    86.1     982    2    55          
2012-03-09 12   17.5    85.0     974    3    65          
2012-03-09 18   18.3    83.6     974    3    65          
2012-03-10 00   19.0    82.3     967    3    75          
2012-03-10 06   19.7    81.1     970    3    70          
2012-03-10 12   20.3    80.3     967    3    75          
2012-03-10 18   21.1    79.6     970    3    70          
2012-03-11 00   22.1    79.3     978    2    60          
2012-03-11 06   23.1    79.4     982    2    55          
2012-03-11 12   24.0    79.8     985    2    50          
2012-03-11 18   25.3    80.5     993    1    40          
2012-03-12 00   26.5    80.7     996    1    35          
2012-03-12 06   27.6    81.7     996    1    35          
2012-03-12 12   29.1    82.6     996    1    35          
2012-03-12 18   30.2    84.3     996    1    35          
2012-03-13 00   32.5    86.3                             
2012-03-13 00   31.1    85.8     996    1    35          
2012-03-13 06   32.5    87.9                             
2012-03-13 12   32.5    89.3                             
2012-03-13 18   32.3    90.3                             
2012-03-14 00   31.8    90.1                             
2012-03-14 06   30.6    90.0                             
2012-03-14 12   30.2    89.8                             
2012-03-14 18   30.2    88.6                             
2012-03-15 00   30.8    87.2                             
2012-03-15 06   32.0    86.7                             
2012-03-15 12   33.0    86.1                             
Winds are 10-min average.

Tropical cyclone tracks developed by Michael Bath using operational warnings and advisories and Google Maps.


[Australian Severe Weather index] [Copyright Notice] [Email Contacts] [Search This Site] [Privacy Policy]
Document: tropical_cyclone_koji-joni.htm Updated: 2 May 2017